sensor_id;sensor_type;location;lat;lon;timestamp;pressure;altitude;pressure_sealevel;temperature;humidity
70982;BME280;58640;51.320;9.456;2023-03-04T00:00:51;100012.63;;;2.45;80.34
70982;BME280;58640;51.320;9.456;2023-03-04T00:03:16;100006.03;;;2.51;80.69
70982;BME280;58640;51.320;9.456;2023-03-04T00:05:42;99999.44;;;2.56;80.33
70982;BME280;58640;51.320;9.456;2023-03-04T00:08:07;100005.47;;;2.58;79.83
70982;BME280;58640;51.320;9.456;2023-03-04T00:10:32;100000.72;;;2.51;80.46
70982;BME280;58640;51.320;9.456;2023-03-04T00:12:58;100003.41;;;2.38;80.70
70982;BME280;58640;51.320;9.456;2023-03-04T00:15:23;100001.97;;;2.58;80.44
70982;BME280;58640;51.320;9.456;2023-03-04T00:17:49;100007.28;;;2.58;80.02
70982;BME280;58640;51.320;9.456;2023-03-04T00:20:14;100003.88;;;2.56;80.38
70982;BME280;58640;51.320;9.456;2023-03-04T00:22:39;99998.69;;;2.54;80.56
70982;BME280;58640;51.320;9.456;2023-03-04T00:25:05;100002.09;;;2.56;79.97
70982;BME280;58640;51.320;9.456;2023-03-04T00:27:31;99996.78;;;2.56;79.85
70982;BME280;58640;51.320;9.456;2023-03-04T00:29:56;100003.19;;;2.65;79.21
70982;BME280;58640;51.320;9.456;2023-03-04T00:32:21;99991.34;;;2.58;79.58
70982;BME280;58640;51.320;9.456;2023-03-04T00:34:47;99998.38;;;2.46;80.20
70982;BME280;58640;51.320;9.456;2023-03-04T00:37:13;99991.91;;;2.50;80.11
70982;BME280;58640;51.320;9.456;2023-03-04T00:39:38;99994.69;;;2.49;80.33
70982;BME280;58640;51.320;9.456;2023-03-04T00:42:03;100002.09;;;2.56;79.84
70982;BME280;58640;51.320;9.456;2023-03-04T00:44:29;99996.72;;;2.69;79.28
70982;BME280;58640;51.320;9.456;2023-03-04T00:46:54;100002.25;;;2.66;79.03
70982;BME280;58640;51.320;9.456;2023-03-04T00:49:20;99994.63;;;2.61;79.28
70982;BME280;58640;51.320;9.456;2023-03-04T00:51:45;99999.09;;;2.61;79.57
70982;BME280;58640;51.320;9.456;2023-03-04T00:54:10;99985.06;;;2.59;79.82
70982;BME280;58640;51.320;9.456;2023-03-04T00:56:36;99990.38;;;2.59;80.18
70982;BME280;58640;51.320;9.456;2023-03-04T00:59:01;99989.72;;;2.91;78.35
70982;BME280;58640;51.320;9.456;2023-03-04T01:01:26;99993.75;;;3.08;77.06
70982;BME280;58640;51.320;9.456;2023-03-04T01:03:52;99991.19;;;3.07;77.14
70982;BME280;58640;51.320;9.456;2023-03-04T01:06:17;99990.06;;;2.87;77.71
70982;BME280;58640;51.320;9.456;2023-03-04T01:08:43;99986.25;;;2.78;78.34
70982;BME280;58640;51.320;9.456;2023-03-04T01:11:08;99987.63;;;2.84;78.28
70982;BME280;58640;51.320;9.456;2023-03-04T01:13:34;99980.38;;;2.86;78.40
70982;BME280;58640;51.320;9.456;2023-03-04T01:15:59;99985.88;;;2.72;78.93
70982;BME280;58640;51.320;9.456;2023-03-04T01:18:25;99985.41;;;2.78;78.22
70982;BME280;58640;51.320;9.456;2023-03-04T01:20:50;99986.59;;;2.74;78.27
70982;BME280;58640;51.320;9.456;2023-03-04T01:23:16;99983.44;;;2.69;78.44
70982;BME280;58640;51.320;9.456;2023-03-04T01:25:41;99978.94;;;2.58;78.57
70982;BME280;58640;51.320;9.456;2023-03-04T01:28:06;99978.31;;;2.55;78.86
70982;BME280;58640;51.320;9.456;2023-03-04T01:30:32;99965.31;;;2.63;78.64
70982;BME280;58640;51.320;9.456;2023-03-04T01:32:57;99969.94;;;2.72;78.39
70982;BME280;58640;51.320;9.456;2023-03-04T01:35:23;99964.38;;;2.75;77.68
70982;BME280;58640;51.320;9.456;2023-03-04T01:37:48;99965.34;;;2.74;77.33
70982;BME280;58640;51.320;9.456;2023-03-04T01:40:13;99959.88;;;2.64;77.76
70982;BME280;58640;51.320;9.456;2023-03-04T01:42:39;99961.78;;;2.62;78.10
70982;BME280;58640;51.320;9.456;2023-03-04T01:45:05;99945.63;;;2.65;77.81
70982;BME280;58640;51.320;9.456;2023-03-04T01:47:32;99954.06;;;2.94;76.53
70982;BME280;58640;51.320;9.456;2023-03-04T01:50:01;99948.44;;;2.75;77.51
70982;BME280;58640;51.320;9.456;2023-03-04T01:52:27;99948.66;;;2.95;77.18
70982;BME280;58640;51.320;9.456;2023-03-04T01:54:53;99949.00;;;2.91;76.83
70982;BME280;58640;51.320;9.456;2023-03-04T01:57:22;99942.25;;;2.87;77.27
70982;BME280;58640;51.320;9.456;2023-03-04T02:00:49;99939.66;;;3.09;76.54
70982;BME280;58640;51.320;9.456;2023-03-04T02:03:02;99941.91;;;3.03;76.45
70982;BME280;58640;51.320;9.456;2023-03-04T02:05:28;99931.44;;;2.77;77.54
70982;BME280;58640;51.320;9.456;2023-03-04T02:07:54;99932.13;;;2.68;77.99
70982;BME280;58640;51.320;9.456;2023-03-04T02:10:21;99932.81;;;2.59;78.57
70982;BME280;58640;51.320;9.456;2023-03-04T02:12:46;99927.97;;;2.53;79.19
70982;BME280;58640;51.320;9.456;2023-03-04T02:15:12;99927.94;;;2.77;78.23
70982;BME280;58640;51.320;9.456;2023-03-04T02:17:38;99925.13;;;2.67;78.65
70982;BME280;58640;51.320;9.456;2023-03-04T02:20:30;99928.84;;;2.65;78.91
70982;BME280;58640;51.320;9.456;2023-03-04T02:23:04;99921.34;;;2.59;78.96
70982;BME280;58640;51.320;9.456;2023-03-04T02:25:41;99920.44;;;2.71;78.53
70982;BME280;58640;51.320;9.456;2023-03-04T02:28:08;99928.78;;;2.77;78.46
70982;BME280;58640;51.320;9.456;2023-03-04T02:30:33;99918.13;;;2.66;78.83
70982;BME280;58640;51.320;9.456;2023-03-04T02:32:59;99925.28;;;2.77;78.12
70982;BME280;58640;51.320;9.456;2023-03-04T02:35:24;99926.19;;;2.65;78.88
70982;BME280;58640;51.320;9.456;2023-03-04T02:37:50;99923.69;;;2.74;78.42
70982;BME280;58640;51.320;9.456;2023-03-04T02:40:22;99918.84;;;2.68;78.66
70982;BME280;58640;51.320;9.456;2023-03-04T02:42:49;99915.91;;;2.60;79.10
70982;BME280;58640;51.320;9.456;2023-03-04T02:45:34;99918.59;;;2.71;79.14
70982;BME280;58640;51.320;9.456;2023-03-04T02:48:00;99915.69;;;2.63;79.33
70982;BME280;58640;51.320;9.456;2023-03-04T02:50:27;99916.16;;;2.57;79.84
70982;BME280;58640;51.320;9.456;2023-03-04T02:52:54;99916.25;;;2.56;80.11
70982;BME280;58640;51.320;9.456;2023-03-04T02:55:19;99906.72;;;2.53;80.00
70982;BME280;58640;51.320;9.456;2023-03-04T02:57:44;99902.28;;;2.65;79.82
70982;BME280;58640;51.320;9.456;2023-03-04T03:00:11;99903.06;;;2.78;78.31
70982;BME280;58640;51.320;9.456;2023-03-04T03:02:37;99906.72;;;2.88;78.08
70982;BME280;58640;51.320;9.456;2023-03-04T03:05:02;99906.81;;;2.75;78.34
70982;BME280;58640;51.320;9.456;2023-03-04T03:07:28;99902.34;;;2.76;78.32
70982;BME280;58640;51.320;9.456;2023-03-04T03:09:53;99897.34;;;2.71;78.46
70982;BME280;58640;51.320;9.456;2023-03-04T03:12:18;99899.97;;;2.84;77.99
70982;BME280;58640;51.320;9.456;2023-03-04T03:14:44;99890.16;;;2.84;77.92
70982;BME280;58640;51.320;9.456;2023-03-04T03:17:09;99896.09;;;2.88;77.67
70982;BME280;58640;51.320;9.456;2023-03-04T03:19:35;99891.94;;;3.08;77.22
70982;BME280;58640;51.320;9.456;2023-03-04T03:22:00;99900.94;;;2.94;77.19
70982;BME280;58640;51.320;9.456;2023-03-04T03:24:25;99901.69;;;2.96;77.26
70982;BME280;58640;51.320;9.456;2023-03-04T03:26:51;99897.03;;;2.76;78.05
70982;BME280;58640;51.320;9.456;2023-03-04T03:29:16;99893.69;;;2.85;77.72
70982;BME280;58640;51.320;9.456;2023-03-04T03:31:41;99902.34;;;2.76;78.26
70982;BME280;58640;51.320;9.456;2023-03-04T03:34:07;99892.97;;;2.94;77.66
70982;BME280;58640;51.320;9.456;2023-03-04T03:36:32;99895.47;;;2.84;77.64
70982;BME280;58640;51.320;9.456;2023-03-04T03:38:58;99899.84;;;2.85;78.01
70982;BME280;58640;51.320;9.456;2023-03-04T03:41:23;99898.25;;;2.83;78.40
70982;BME280;58640;51.320;9.456;2023-03-04T03:43:48;99898.19;;;3.07;77.32
70982;BME280;58640;51.320;9.456;2023-03-04T03:46:14;99895.97;;;2.89;77.48
70982;BME280;58640;51.320;9.456;2023-03-04T03:48:39;99895.88;;;2.91;77.96
70982;BME280;58640;51.320;9.456;2023-03-04T03:51:04;99890.41;;;2.81;78.26
70982;BME280;58640;51.320;9.456;2023-03-04T03:53:30;99896.53;;;2.71;78.80
70982;BME280;58640;51.320;9.456;2023-03-04T03:55:55;99887.13;;;2.78;78.79
70982;BME280;58640;51.320;9.456;2023-03-04T03:58:20;99894.84;;;2.81;78.66
70982;BME280;58640;51.320;9.456;2023-03-04T04:00:47;99895.44;;;2.73;79.04
70982;BME280;58640;51.320;9.456;2023-03-04T04:03:16;99894.69;;;2.95;78.27
70982;BME280;58640;51.320;9.456;2023-03-04T04:05:41;99891.31;;;3.04;78.10
70982;BME280;58640;51.320;9.456;2023-03-04T04:08:11;99886.59;;;2.96;77.91
70982;BME280;58640;51.320;9.456;2023-03-04T04:10:36;99885.84;;;2.94;78.27
70982;BME280;58640;51.320;9.456;2023-03-04T04:13:02;99885.81;;;2.83;78.55
70982;BME280;58640;51.320;9.456;2023-03-04T04:15:27;99892.09;;;2.82;78.70
70982;BME280;58640;51.320;9.456;2023-03-04T04:17:52;99874.66;;;2.67;79.57
70982;BME280;58640;51.320;9.456;2023-03-04T04:20:18;99880.97;;;2.66;79.61
70982;BME280;58640;51.320;9.456;2023-03-04T04:22:43;99876.63;;;2.76;79.13
70982;BME280;58640;51.320;9.456;2023-03-04T04:25:09;99878.34;;;2.77;78.68
70982;BME280;58640;51.320;9.456;2023-03-04T04:27:34;99877.50;;;2.88;78.65
70982;BME280;58640;51.320;9.456;2023-03-04T04:30:00;99873.34;;;2.73;79.00
70982;BME280;58640;51.320;9.456;2023-03-04T04:32:25;99881.28;;;2.62;79.45
70982;BME280;58640;51.320;9.456;2023-03-04T04:34:51;99878.84;;;2.59;79.54
70982;BME280;58640;51.320;9.456;2023-03-04T04:37:16;99872.59;;;2.60;79.62
70982;BME280;58640;51.320;9.456;2023-03-04T04:39:41;99874.44;;;2.70;79.51
70982;BME280;58640;51.320;9.456;2023-03-04T04:42:09;99877.84;;;2.83;78.48
70982;BME280;58640;51.320;9.456;2023-03-04T04:44:35;99874.81;;;2.77;78.88
70982;BME280;58640;51.320;9.456;2023-03-04T04:47:03;99876.00;;;2.73;79.08
70982;BME280;58640;51.320;9.456;2023-03-04T04:49:28;99867.72;;;2.88;78.14
70982;BME280;58640;51.320;9.456;2023-03-04T04:51:54;99871.09;;;2.90;77.95
70982;BME280;58640;51.320;9.456;2023-03-04T04:54:19;99873.44;;;2.95;78.37
70982;BME280;58640;51.320;9.456;2023-03-04T04:56:44;99871.50;;;3.08;77.66
70982;BME280;58640;51.320;9.456;2023-03-04T04:59:10;99864.47;;;2.96;77.90
70982;BME280;58640;51.320;9.456;2023-03-04T05:01:35;99872.66;;;2.82;78.51
70982;BME280;58640;51.320;9.456;2023-03-04T05:04:01;99868.78;;;2.75;78.68
70982;BME280;58640;51.320;9.456;2023-03-04T05:06:27;99860.94;;;2.84;78.48
70982;BME280;58640;51.320;9.456;2023-03-04T05:08:52;99867.13;;;2.96;77.89
70982;BME280;58640;51.320;9.456;2023-03-04T05:11:19;99861.69;;;2.86;78.12
70982;BME280;58640;51.320;9.456;2023-03-04T05:13:45;99857.69;;;2.92;78.19
70982;BME280;58640;51.320;9.456;2023-03-04T05:16:11;99867.38;;;2.93;78.09
70982;BME280;58640;51.320;9.456;2023-03-04T05:18:37;99868.22;;;2.93;78.27
70982;BME280;58640;51.320;9.456;2023-03-04T05:21:03;99869.31;;;3.02;78.05
70982;BME280;58640;51.320;9.456;2023-03-04T05:23:32;99869.56;;;3.10;77.72
70982;BME280;58640;51.320;9.456;2023-03-04T05:25:57;99858.84;;;3.23;76.97
70982;BME280;58640;51.320;9.456;2023-03-04T05:28:23;99865.59;;;3.05;77.59
70982;BME280;58640;51.320;9.456;2023-03-04T05:30:48;99873.69;;;3.03;78.25
70982;BME280;58640;51.320;9.456;2023-03-04T05:33:16;99874.72;;;2.89;78.39
70982;BME280;58640;51.320;9.456;2023-03-04T05:35:42;99869.41;;;2.89;79.03
70982;BME280;58640;51.320;9.456;2023-03-04T05:38:10;99869.06;;;2.94;78.87
70982;BME280;58640;51.320;9.456;2023-03-04T05:40:36;99877.06;;;3.05;78.26
70982;BME280;58640;51.320;9.456;2023-03-04T05:43:02;99874.72;;;2.89;78.62
70982;BME280;58640;51.320;9.456;2023-03-04T05:45:27;99882.44;;;2.81;79.38
70982;BME280;58640;51.320;9.456;2023-03-04T05:47:53;99871.94;;;2.91;78.95
70982;BME280;58640;51.320;9.456;2023-03-04T05:50:20;99879.78;;;2.81;79.75
70982;BME280;58640;51.320;9.456;2023-03-04T05:52:45;99882.69;;;2.89;79.15
70982;BME280;58640;51.320;9.456;2023-03-04T05:55:11;99876.66;;;2.87;79.50
70982;BME280;58640;51.320;9.456;2023-03-04T05:57:36;99874.47;;;2.81;79.82
70982;BME280;58640;51.320;9.456;2023-03-04T06:00:02;99879.06;;;2.90;79.62
70982;BME280;58640;51.320;9.456;2023-03-04T06:02:29;99877.84;;;2.83;80.12
70982;BME280;58640;51.320;9.456;2023-03-04T06:04:54;99870.75;;;2.84;80.49
70982;BME280;58640;51.320;9.456;2023-03-04T06:07:20;99876.75;;;2.86;80.66
70982;BME280;58640;51.320;9.456;2023-03-04T06:09:46;99879.53;;;2.84;80.65
70982;BME280;58640;51.320;9.456;2023-03-04T06:12:11;99875.59;;;2.90;80.37
70982;BME280;58640;51.320;9.456;2023-03-04T06:14:37;99875.97;;;3.08;79.78
70982;BME280;58640;51.320;9.456;2023-03-04T06:17:02;99876.81;;;3.08;79.55
70982;BME280;58640;51.320;9.456;2023-03-04T06:19:28;99878.75;;;2.95;80.50
70982;BME280;58640;51.320;9.456;2023-03-04T06:21:53;99881.88;;;3.00;80.04
70982;BME280;58640;51.320;9.456;2023-03-04T06:24:18;99885.75;;;2.96;80.10
70982;BME280;58640;51.320;9.456;2023-03-04T06:26:44;99887.13;;;3.13;79.33
70982;BME280;58640;51.320;9.456;2023-03-04T06:29:09;99879.22;;;3.00;80.08
70982;BME280;58640;51.320;9.456;2023-03-04T06:31:35;99879.81;;;3.03;79.80
70982;BME280;58640;51.320;9.456;2023-03-04T06:34:00;99882.25;;;3.07;80.01
70982;BME280;58640;51.320;9.456;2023-03-04T06:36:25;99886.25;;;3.12;79.44
70982;BME280;58640;51.320;9.456;2023-03-04T06:38:51;99883.38;;;3.26;79.39
70982;BME280;58640;51.320;9.456;2023-03-04T06:41:16;99891.72;;;3.44;78.61
70982;BME280;58640;51.320;9.456;2023-03-04T06:43:41;99890.16;;;3.41;78.23
70982;BME280;58640;51.320;9.456;2023-03-04T06:46:08;99879.03;;;3.36;78.73
70982;BME280;58640;51.320;9.456;2023-03-04T06:48:33;99891.22;;;3.28;79.09
70982;BME280;58640;51.320;9.456;2023-03-04T06:51:05;99892.94;;;3.40;78.74
70982;BME280;58640;51.320;9.456;2023-03-04T06:53:30;99892.09;;;3.28;78.99
70982;BME280;58640;51.320;9.456;2023-03-04T06:55:58;99890.03;;;3.21;79.42
70982;BME280;58640;51.320;9.456;2023-03-04T06:58:23;99895.50;;;3.52;77.94
70982;BME280;58640;51.320;9.456;2023-03-04T07:00:49;99882.56;;;3.48;78.02
70982;BME280;58640;51.320;9.456;2023-03-04T07:03:14;99885.03;;;3.16;79.73
70982;BME280;58640;51.320;9.456;2023-03-04T07:05:41;99881.56;;;3.27;79.52
70982;BME280;58640;51.320;9.456;2023-03-04T07:08:07;99883.88;;;3.31;79.13
70982;BME280;58640;51.320;9.456;2023-03-04T07:10:32;99886.03;;;3.26;79.56
70982;BME280;58640;51.320;9.456;2023-03-04T07:12:57;99897.03;;;3.33;79.10
70982;BME280;58640;51.320;9.456;2023-03-04T07:15:23;99898.63;;;3.57;78.47
70982;BME280;58640;51.320;9.456;2023-03-04T07:17:48;99893.53;;;3.43;79.04
70982;BME280;58640;51.320;9.456;2023-03-04T07:20:13;99894.63;;;3.52;78.73
70982;BME280;58640;51.320;9.456;2023-03-04T07:22:39;99891.34;;;3.48;78.80
70982;BME280;58640;51.320;9.456;2023-03-04T07:25:05;99890.53;;;3.48;78.76
70982;BME280;58640;51.320;9.456;2023-03-04T07:27:30;99884.84;;;3.63;78.33
70982;BME280;58640;51.320;9.456;2023-03-04T07:29:56;99888.38;;;3.64;78.35
70982;BME280;58640;51.320;9.456;2023-03-04T07:32:21;99889.94;;;3.55;78.85
70982;BME280;58640;51.320;9.456;2023-03-04T07:34:46;99891.25;;;3.61;78.56
70982;BME280;58640;51.320;9.456;2023-03-04T07:37:12;99889.69;;;3.47;78.96
70982;BME280;58640;51.320;9.456;2023-03-04T07:39:37;99891.00;;;3.42;79.19
70982;BME280;58640;51.320;9.456;2023-03-04T07:42:03;99898.84;;;3.54;79.03
70982;BME280;58640;51.320;9.456;2023-03-04T07:44:28;99887.75;;;3.71;78.09
70982;BME280;58640;51.320;9.456;2023-03-04T07:46:53;99902.38;;;3.55;79.24
70982;BME280;58640;51.320;9.456;2023-03-04T07:49:21;99903.47;;;3.52;79.72
70982;BME280;58640;51.320;9.456;2023-03-04T07:51:47;99894.13;;;3.69;78.56
70982;BME280;58640;51.320;9.456;2023-03-04T07:54:12;99893.53;;;3.87;78.04
70982;BME280;58640;51.320;9.456;2023-03-04T07:56:37;99893.91;;;3.94;77.98
70982;BME280;58640;51.320;9.456;2023-03-04T07:59:03;99884.97;;;3.73;78.75
70982;BME280;58640;51.320;9.456;2023-03-04T08:01:31;99891.78;;;4.30;76.77
70982;BME280;58640;51.320;9.456;2023-03-04T08:03:57;99888.31;;;4.50;76.32
70982;BME280;58640;51.320;9.456;2023-03-04T08:06:23;99892.56;;;4.74;75.11
70982;BME280;58640;51.320;9.456;2023-03-04T08:08:58;99883.78;;;5.24;73.36
70982;BME280;58640;51.320;9.456;2023-03-04T08:11:24;99883.53;;;5.57;71.61
70982;BME280;58640;51.320;9.456;2023-03-04T08:13:50;99875.31;;;5.39;71.92
70982;BME280;58640;51.320;9.456;2023-03-04T08:16:18;99879.38;;;5.34;72.65
70982;BME280;58640;51.320;9.456;2023-03-04T08:18:45;99889.06;;;5.65;72.01
70982;BME280;58640;51.320;9.456;2023-03-04T08:21:13;99893.75;;;5.42;71.14
70982;BME280;58640;51.320;9.456;2023-03-04T08:23:39;99896.78;;;5.38;72.17
70982;BME280;58640;51.320;9.456;2023-03-04T08:26:09;99886.56;;;5.73;71.25
70982;BME280;58640;51.320;9.456;2023-03-04T08:28:35;99888.28;;;6.04;69.79
70982;BME280;58640;51.320;9.456;2023-03-04T08:31:00;99887.50;;;5.83;70.29
70982;BME280;58640;51.320;9.456;2023-03-04T08:33:26;99886.44;;;5.95;69.54
70982;BME280;58640;51.320;9.456;2023-03-04T08:35:51;99880.09;;;5.66;70.61
70982;BME280;58640;51.320;9.456;2023-03-04T08:38:17;99874.50;;;6.09;69.41
70982;BME280;58640;51.320;9.456;2023-03-04T08:40:42;99871.22;;;5.95;69.74
70982;BME280;58640;51.320;9.456;2023-03-04T08:43:07;99867.25;;;5.50;70.35
70982;BME280;58640;51.320;9.456;2023-03-04T08:45:33;99865.53;;;5.79;70.39
70982;BME280;58640;51.320;9.456;2023-03-04T08:47:58;99868.47;;;6.16;69.01
70982;BME280;58640;51.320;9.456;2023-03-04T08:50:24;99873.31;;;6.32;68.99
70982;BME280;58640;51.320;9.456;2023-03-04T08:52:51;99860.59;;;6.15;69.55
70982;BME280;58640;51.320;9.456;2023-03-04T08:55:17;99868.34;;;6.37;69.28
70982;BME280;58640;51.320;9.456;2023-03-04T08:57:42;99870.94;;;6.67;67.43
70982;BME280;58640;51.320;9.456;2023-03-04T09:00:08;99864.13;;;6.25;68.92
70982;BME280;58640;51.320;9.456;2023-03-04T09:02:33;99864.88;;;6.36;68.77
70982;BME280;58640;51.320;9.456;2023-03-04T09:04:59;99860.94;;;6.59;67.97
70982;BME280;58640;51.320;9.456;2023-03-04T09:07:24;99860.91;;;6.40;68.82
70982;BME280;58640;51.320;9.456;2023-03-04T09:09:49;99856.84;;;6.93;66.60
70982;BME280;58640;51.320;9.456;2023-03-04T09:12:15;99860.38;;;6.84;66.70
70982;BME280;58640;51.320;9.456;2023-03-04T09:14:40;99858.97;;;6.71;66.58
70982;BME280;58640;51.320;9.456;2023-03-04T09:17:06;99858.25;;;6.50;67.71
70982;BME280;58640;51.320;9.456;2023-03-04T09:19:31;99857.97;;;6.34;68.70
70982;BME280;58640;51.320;9.456;2023-03-04T09:21:59;99852.47;;;6.35;67.97
70982;BME280;58640;51.320;9.456;2023-03-04T09:24:25;99861.84;;;6.01;69.50
70982;BME280;58640;51.320;9.456;2023-03-04T09:26:52;99861.09;;;5.89;69.87
70982;BME280;58640;51.320;9.456;2023-03-04T09:29:18;99867.06;;;6.12;69.42
70982;BME280;58640;51.320;9.456;2023-03-04T09:31:43;99864.63;;;5.90;70.51
70982;BME280;58640;51.320;9.456;2023-03-04T09:34:09;99860.31;;;6.08;70.12
70982;BME280;58640;51.320;9.456;2023-03-04T09:36:34;99858.91;;;5.74;70.92
70982;BME280;58640;51.320;9.456;2023-03-04T09:39:00;99866.47;;;5.99;70.22
70982;BME280;58640;51.320;9.456;2023-03-04T09:41:42;99860.31;;;6.08;69.86
70982;BME280;58640;51.320;9.456;2023-03-04T09:44:27;99870.66;;;5.92;70.76
70982;BME280;58640;51.320;9.456;2023-03-04T09:46:57;99867.78;;;6.14;70.33
70982;BME280;58640;51.320;9.456;2023-03-04T09:49:24;99869.81;;;5.82;71.94
70982;BME280;58640;51.320;9.456;2023-03-04T09:51:58;99878.25;;;5.87;71.89
70982;BME280;58640;51.320;9.456;2023-03-04T09:57:10;99863.97;;;6.17;71.64
70982;BME280;58640;51.320;9.456;2023-03-04T09:59:45;99870.34;;;6.25;71.80
70982;BME280;58640;51.320;9.456;2023-03-04T10:05:23;99878.38;;;6.35;70.62
70982;BME280;58640;51.320;9.456;2023-03-04T10:07:58;99870.38;;;6.44;69.82
70982;BME280;58640;51.320;9.456;2023-03-04T10:10:32;99875.00;;;6.52;70.57
70982;BME280;58640;51.320;9.456;2023-03-04T10:13:00;99870.94;;;6.76;69.85
70982;BME280;58640;51.320;9.456;2023-03-04T10:15:38;99867.25;;;6.39;70.78
70982;BME280;58640;51.320;9.456;2023-03-04T10:18:15;99865.91;;;6.05;72.35
70982;BME280;58640;51.320;9.456;2023-03-04T10:20:51;99860.75;;;6.23;72.30
70982;BME280;58640;51.320;9.456;2023-03-04T10:23:21;99866.50;;;6.09;72.67
70982;BME280;58640;51.320;9.456;2023-03-04T10:25:46;99860.59;;;6.15;72.70
70982;BME280;58640;51.320;9.456;2023-03-04T10:28:25;99863.66;;;6.01;74.08
70982;BME280;58640;51.320;9.456;2023-03-04T10:33:34;99864.44;;;6.31;72.87
70982;BME280;58640;51.320;9.456;2023-03-04T10:36:05;99858.69;;;6.64;71.91
70982;BME280;58640;51.320;9.456;2023-03-04T10:38:41;99848.84;;;6.55;71.54
70982;BME280;58640;51.320;9.456;2023-03-04T10:41:15;99858.81;;;6.63;72.13
70982;BME280;58640;51.320;9.456;2023-03-04T10:43:41;99849.50;;;7.14;69.36
70982;BME280;58640;51.320;9.456;2023-03-04T10:46:11;99854.50;;;7.36;68.14
70982;BME280;58640;51.320;9.456;2023-03-04T10:48:39;99844.75;;;6.80;71.14
70982;BME280;58640;51.320;9.456;2023-03-04T10:51:12;99849.28;;;6.41;72.23
70982;BME280;58640;51.320;9.456;2023-03-04T10:53:42;99850.66;;;6.64;71.94
70982;BME280;58640;51.320;9.456;2023-03-04T10:56:30;99847.13;;;6.35;72.20
70982;BME280;58640;51.320;9.456;2023-03-04T11:02:00;99840.13;;;6.53;71.87
70982;BME280;58640;51.320;9.456;2023-03-04T11:04:31;99841.78;;;6.54;72.41
70982;BME280;58640;51.320;9.456;2023-03-04T11:06:57;99848.41;;;6.60;71.99
70982;BME280;58640;51.320;9.456;2023-03-04T11:09:25;99848.13;;;6.72;71.74
70982;BME280;58640;51.320;9.456;2023-03-04T11:11:53;99846.31;;;6.82;70.52
70982;BME280;58640;51.320;9.456;2023-03-04T11:14:28;99846.88;;;6.67;71.16
70982;BME280;58640;51.320;9.456;2023-03-04T11:16:58;99834.19;;;6.40;73.16
70982;BME280;58640;51.320;9.456;2023-03-04T11:19:34;99836.31;;;6.37;72.82
70982;BME280;58640;51.320;9.456;2023-03-04T11:22:02;99834.19;;;6.40;72.99
70982;BME280;58640;51.320;9.456;2023-03-04T11:24:28;99836.59;;;6.34;73.47
70982;BME280;58640;51.320;9.456;2023-03-04T11:27:02;99846.03;;;6.47;72.71
70982;BME280;58640;51.320;9.456;2023-03-04T11:29:52;99833.25;;;6.41;72.73
70982;BME280;58640;51.320;9.456;2023-03-04T11:32:19;99840.25;;;6.33;72.78
70982;BME280;58640;51.320;9.456;2023-03-04T11:34:52;99834.97;;;5.83;74.88
70982;BME280;58640;51.320;9.456;2023-03-04T11:37:29;99828.13;;;6.19;74.18
70982;BME280;58640;51.320;9.456;2023-03-04T11:40:03;99836.72;;;6.32;73.65
70982;BME280;58640;51.320;9.456;2023-03-04T11:44:59;99819.94;;;6.02;74.95
70982;BME280;58640;51.320;9.456;2023-03-04T11:50:28;99825.50;;;5.79;76.96
70982;BME280;58640;51.320;9.456;2023-03-04T11:53:07;99826.47;;;5.78;76.18
70982;BME280;58640;51.320;9.456;2023-03-04T11:55:50;99821.91;;;5.90;75.99
70982;BME280;58640;51.320;9.456;2023-03-04T12:01:14;99817.28;;;6.02;76.12
70982;BME280;58640;51.320;9.456;2023-03-04T12:04:08;99809.53;;;5.98;76.63
70982;BME280;58640;51.320;9.456;2023-03-04T12:31:45;99786.25;;;6.58;75.22
70982;BME280;58640;51.320;9.456;2023-03-04T12:34:29;99789.06;;;6.18;78.52
70982;BME280;58640;51.320;9.456;2023-03-04T12:40:05;99778.94;;;6.12;76.68
70982;BME280;58640;51.320;9.456;2023-03-04T12:43:06;99780.63;;;6.13;77.45
70982;BME280;58640;51.320;9.456;2023-03-04T12:45:48;99766.38;;;5.84;77.93
70982;BME280;58640;51.320;9.456;2023-03-04T12:50:50;99766.16;;;6.44;75.63
70982;BME280;58640;51.320;9.456;2023-03-04T12:56:25;99761.91;;;6.42;74.64
70982;BME280;58640;51.320;9.456;2023-03-04T12:58:51;99757.69;;;6.58;74.16
70982;BME280;58640;51.320;9.456;2023-03-04T13:09:37;99753.22;;;6.21;75.68
70982;BME280;58640;51.320;9.456;2023-03-04T13:12:14;99754.47;;;6.45;74.12
70982;BME280;58640;51.320;9.456;2023-03-04T13:17:49;99734.66;;;6.38;74.08
70982;BME280;58640;51.320;9.456;2023-03-04T13:20:22;99739.59;;;6.14;73.96
70982;BME280;58640;51.320;9.456;2023-03-04T13:25:36;99740.53;;;6.42;72.70
70982;BME280;58640;51.320;9.456;2023-03-04T13:41:18;99716.53;;;5.84;75.67
70982;BME280;58640;51.320;9.456;2023-03-04T13:43:55;99716.25;;;5.97;75.64
70982;BME280;58640;51.320;9.456;2023-03-04T13:51:24;99716.38;;;5.95;74.25
70982;BME280;58640;51.320;9.456;2023-03-04T13:56:37;99711.03;;;5.86;74.93
70982;BME280;58640;51.320;9.456;2023-03-04T14:04:17;99712.44;;;5.80;74.58
70982;BME280;58640;51.320;9.456;2023-03-04T14:06:47;99717.03;;;5.59;75.76
70982;BME280;58640;51.320;9.456;2023-03-04T14:09:23;99707.22;;;5.69;75.70
70982;BME280;58640;51.320;9.456;2023-03-04T14:11:50;99712.53;;;5.60;76.31
70982;BME280;58640;51.320;9.456;2023-03-04T14:14:23;99708.81;;;5.91;75.02
70982;BME280;58640;51.320;9.456;2023-03-04T14:16:55;99698.41;;;5.97;75.32
70982;BME280;58640;51.320;9.456;2023-03-04T14:19:27;99698.25;;;6.09;74.36
70982;BME280;58640;51.320;9.456;2023-03-04T14:21:53;99696.16;;;6.12;74.58
70982;BME280;58640;51.320;9.456;2023-03-04T14:24:20;99692.22;;;6.16;74.27
70982;BME280;58640;51.320;9.456;2023-03-04T14:26:46;99692.50;;;6.04;75.59
70982;BME280;58640;51.320;9.456;2023-03-04T14:29:26;99683.91;;;6.19;74.84
70982;BME280;58640;51.320;9.456;2023-03-04T14:31:53;99674.66;;;6.14;74.52
70982;BME280;58640;51.320;9.456;2023-03-04T14:34:39;99677.03;;;6.26;73.89
70982;BME280;58640;51.320;9.456;2023-03-04T14:37:37;99674.94;;;6.20;73.30
70982;BME280;58640;51.320;9.456;2023-03-04T14:40:07;99676.75;;;5.91;74.72
70982;BME280;58640;51.320;9.456;2023-03-04T14:42:43;99672.41;;;5.90;74.42
70982;BME280;58640;51.320;9.456;2023-03-04T14:45:13;99666.47;;;5.77;75.01
70982;BME280;58640;51.320;9.456;2023-03-04T14:47:42;99665.63;;;5.67;75.57